Time;durP1;ratioP1;P1;durP2;ratioP2;P2;SDS_P1;SDS_P2;PMS_P1;PMS_P2;Temp;Humidity;BMP_temperature;BMP_pressure;BME280_temperature;BME280_humidity;BME280_pressure;Samples;Min_cycle;Max_cycle;Signal;HPM_P1;HPM_P2
2021/04/20 00:00:26;;;;;;;6.25;2.90;;;14.10;41.80;;;;;;6189228;28;20130;-77
2021/04/20 00:03:27;;;;;;;8.68;3.08;;;14.10;42.10;;;;;;6206408;28;20453;-79
2021/04/20 00:06:29;;;;;;;7.47;3.08;;;14.00;42.30;;;;;;6212272;28;20033;-78
2021/04/20 00:09:30;;;;;;;5.85;2.88;;;13.90;42.50;;;;;;6221239;28;20029;-78
2021/04/20 00:12:30;;;;;;;8.35;3.25;;;13.90;42.80;;;;;;6229727;28;20101;-78
2021/04/20 00:15:33;;;;;;;6.75;2.60;;;13.80;43.10;;;;;;6196586;28;20483;-78
2021/04/20 00:18:34;;;;;;;4.07;2.78;;;13.70;43.10;;;;;;6196220;28;20034;-78
2021/04/20 00:21:35;;;;;;;6.70;3.88;;;13.70;43.00;;;;;;6212024;28;20041;-78
2021/04/20 00:24:36;;;;;;;5.40;3.15;;;13.70;43.10;;;;;;6178259;28;20026;-78
2021/04/20 00:27:37;;;;;;;7.60;3.10;;;13.70;43.40;;;;;;6188607;28;20480;-78
2021/04/20 00:30:40;;;;;;;8.85;3.20;;;13.70;43.30;;;;;;6185587;28;20363;-78
2021/04/20 00:33:41;;;;;;;4.50;3.15;;;13.70;43.50;;;;;;6204604;28;20041;-79
2021/04/20 00:36:42;;;;;;;5.32;2.75;;;13.70;43.70;;;;;;6205267;28;20385;-78
2021/04/20 00:39:43;;;;;;;4.45;2.70;;;13.70;43.80;;;;;;6191162;28;20037;-78
2021/04/20 00:42:52;;;;;;;4.47;2.72;;;13.60;44.10;;;;;;6204547;28;20038;-78
2021/04/20 00:45:53;;;;;;;7.93;2.95;;;13.60;44.40;;;;;;6205810;28;20057;-78
2021/04/20 00:48:55;;;;;;;6.45;3.17;;;13.60;44.70;;;;;;6227553;28;20033;-78
2021/04/20 00:51:57;;;;;;;8.95;3.40;;;13.50;44.80;;;;;;6211251;28;20448;-78
2021/04/20 00:54:58;;;;;;;5.72;3.22;;;13.40;44.80;;;;;;6228572;28;20473;-78
2021/04/20 00:58:00;;;;;;;5.65;3.28;;;13.40;44.80;;;;;;6228554;28;20095;-78
2021/04/20 01:01:02;;;;;;;9.25;3.17;;;13.40;45.00;;;;;;6211968;28;20025;-79
2021/04/20 01:04:04;;;;;;;6.22;3.20;;;13.30;45.00;;;;;;6211190;28;20368;-78
2021/04/20 01:07:06;;;;;;;5.53;3.30;;;13.30;45.30;;;;;;6221870;28;20036;-78
2021/04/20 01:10:08;;;;;;;6.30;2.85;;;13.30;45.40;;;;;;6226903;28;20393;-78
2021/04/20 01:13:11;;;;;;;9.38;3.25;;;13.20;45.50;;;;;;6227168;28;20034;-79
2021/04/20 01:16:12;;;;;;;5.07;2.85;;;13.20;45.50;;;;;;6210830;28;20037;-78
2021/04/20 01:19:16;;;;;;;5.72;2.97;;;13.10;45.50;;;;;;6210621;28;20041;-78
2021/04/20 01:22:17;;;;;;;7.50;2.75;;;13.10;45.40;;;;;;6190696;28;20045;-78
2021/04/20 01:25:18;;;;;;;4.82;2.92;;;13.10;45.40;;;;;;6187012;28;20472;-78
2021/04/20 01:28:21;;;;;;;6.32;2.70;;;13.10;45.30;;;;;;6207961;28;20026;-79
2021/04/20 01:31:23;;;;;;;6.15;2.28;;;13.10;45.40;;;;;;6187332;28;20040;-78
2021/04/20 01:34:24;;;;;;;10.73;2.78;;;13.10;45.50;;;;;;6187294;28;20034;-78
2021/04/20 01:37:25;;;;;;;10.48;3.58;;;13.00;45.70;;;;;;6193436;28;20049;-78
2021/04/20 01:40:26;;;;;;;6.50;3.15;;;12.90;45.70;;;;;;6208400;28;20360;-78
2021/04/20 01:43:27;;;;;;;7.38;2.88;;;12.90;45.90;;;;;;6226257;28;20111;-78
2021/04/20 01:46:28;;;;;;;7.13;3.20;;;12.80;46.10;;;;;;6210316;28;20061;-78
2021/04/20 01:49:29;;;;;;;7.03;3.38;;;12.80;46.20;;;;;;6193858;28;20391;-77
2021/04/20 01:52:30;;;;;;;5.50;2.58;;;12.70;46.30;;;;;;6196834;28;20140;-77
2021/04/20 01:55:30;;;;;;;8.75;3.00;;;12.70;46.20;;;;;;6197675;28;20026;-78
2021/04/20 01:58:33;;;;;;;3.70;2.42;;;12.70;46.50;;;;;;6193929;28;20044;-78
2021/04/20 02:01:34;;;;;;;5.47;2.90;;;12.70;46.90;;;;;;6210056;28;20112;-78
2021/04/20 02:04:35;;;;;;;5.07;2.47;;;12.70;47.00;;;;;;6227739;28;20029;-77
2021/04/20 02:07:37;;;;;;;5.30;2.78;;;12.70;47.20;;;;;;6209868;28;20087;-77
2021/04/20 02:10:38;;;;;;;4.13;2.42;;;12.60;47.30;;;;;;6208982;28;20025;-77
2021/04/20 02:13:40;;;;;;;7.45;3.08;;;12.60;47.40;;;;;;6191993;28;20030;-77
2021/04/20 02:16:41;;;;;;;9.02;3.15;;;12.60;47.60;;;;;;6209486;28;20109;-78
2021/04/20 02:19:43;;;;;;;6.72;3.35;;;12.60;47.70;;;;;;6193185;28;20052;-77
2021/04/20 02:22:48;;;;;;;5.57;2.90;;;12.50;47.80;;;;;;6209288;28;20040;-78
2021/04/20 02:25:50;;;;;;;7.78;3.65;;;12.50;47.90;;;;;;6194048;28;20041;-78
2021/04/20 02:28:51;;;;;;;6.95;2.55;;;12.50;47.90;;;;;;6226236;28;20038;-78
2021/04/20 02:31:52;;;;;;;8.13;3.42;;;12.40;48.00;;;;;;6226637;28;20021;-78
2021/04/20 02:34:53;;;;;;;6.25;3.53;;;12.40;48.00;;;;;;6209941;28;20080;-78
2021/04/20 02:37:55;;;;;;;7.70;3.13;;;12.40;48.00;;;;;;6209184;28;20030;-78
2021/04/20 02:40:57;;;;;;;5.88;2.72;;;12.40;47.90;;;;;;6225743;28;20453;-78
2021/04/20 02:44:01;;;;;;;4.32;2.70;;;12.40;47.90;;;;;;6190069;28;20038;-79
2021/04/20 02:47:04;;;;;;;4.57;2.78;;;12.30;47.70;;;;;;6185613;28;20026;-78
2021/04/20 02:50:12;;;;;;;4.57;2.72;;;12.30;47.60;;;;;;6185491;28;20037;-78
2021/04/20 02:53:16;;;;;;;5.05;2.35;;;12.30;47.60;;;;;;6185309;28;20449;-78
2021/04/20 02:56:19;;;;;;;9.18;2.60;;;12.30;47.50;;;;;;6185122;28;20044;-78
2021/04/20 02:59:21;;;;;;;4.05;2.63;;;12.30;47.50;;;;;;6185402;28;20031;-78
2021/04/20 03:02:22;;;;;;;3.70;2.58;;;12.30;47.50;;;;;;6185812;28;20041;-78
2021/04/20 03:05:26;;;;;;;5.55;2.88;;;12.20;47.50;;;;;;6199164;28;20030;-78
2021/04/20 03:08:27;;;;;;;6.10;2.95;;;12.30;47.60;;;;;;6192230;28;20041;-78
2021/04/20 03:11:33;;;;;;;9.00;2.85;;;12.20;47.50;;;;;;6188183;28;20034;-78
2021/04/20 03:14:36;;;;;;;5.53;3.13;;;12.20;47.60;;;;;;6185192;28;20125;-78
2021/04/20 03:17:39;;;;;;;4.57;2.63;;;12.20;47.70;;;;;;6185401;28;20113;-78
2021/04/20 03:20:40;;;;;;;4.20;2.63;;;12.20;47.80;;;;;;6192097;28;20034;-77
2021/04/20 03:23:42;;;;;;;5.40;2.80;;;12.10;48.40;;;;;;6207763;28;20057;-78
2021/04/20 03:26:43;;;;;;;4.80;2.42;;;12.10;48.00;;;;;;6206793;28;20053;-77
2021/04/20 03:29:43;;;;;;;6.85;3.05;;;12.10;48.10;;;;;;6213806;28;20366;-78
2021/04/20 03:32:59;;;;;;;6.53;3.20;;;12.00;48.20;;;;;;6224213;28;20073;-78
2021/04/20 03:36:18;;;;;;;4.50;2.33;;;12.00;48.40;;;;;;6207410;28;20027;-78
2021/04/20 03:39:23;;;;;;;5.30;2.85;;;11.90;48.60;;;;;;6184716;28;20031;-78
2021/04/20 03:42:29;;;;;;;9.13;3.22;;;11.90;48.90;;;;;;6202006;28;20037;-78
2021/04/20 03:45:37;;;;;;;7.90;3.08;;;11.80;49.10;;;;;;6201666;28;20022;-78
2021/04/20 03:48:46;;;;;;;5.20;2.83;;;11.80;49.50;;;;;;6200523;28;20038;-78
2021/04/20 03:51:48;;;;;;;;;;;11.80;49.30;;;;;;6224300;28;20143;-78
2021/04/20 03:54:51;;;;;;;6.50;3.03;;;11.80;49.50;;;;;;6224494;28;19920;-78
2021/04/20 03:57:54;;;;;;;8.95;3.25;;;11.80;49.40;;;;;;6224030;28;20056;-78
2021/04/20 04:01:00;;;;;;;5.88;3.40;;;11.80;49.40;;;;;;6223866;28;20044;-77
2021/04/20 04:04:01;;;;;;;4.80;2.85;;;11.80;49.40;;;;;;6218830;28;20049;-79
2021/04/20 04:07:04;;;;;;;5.95;3.22;;;11.80;49.60;;;;;;6207069;28;20029;-78
2021/04/20 04:10:07;;;;;;;8.73;3.65;;;11.70;49.60;;;;;;6223337;28;20361;-78
2021/04/20 04:13:11;;;;;;;6.45;2.95;;;11.70;49.60;;;;;;6210346;28;20038;-79
2021/04/20 04:16:13;;;;;;;4.05;2.42;;;11.70;49.70;;;;;;6223877;28;20029;-78
2021/04/20 04:19:19;;;;;;;5.40;2.63;;;11.70;49.60;;;;;;6224326;28;20125;-78
2021/04/20 04:22:25;;;;;;;4.10;2.35;;;11.70;49.40;;;;;;6224337;28;20034;-79
2021/04/20 04:25:36;;;;;;;4.00;2.83;;;11.70;49.20;;;;;;6195054;28;20037;-79
2021/04/20 04:28:39;;;;;;;4.70;2.47;;;11.60;49.00;;;;;;6218362;28;20042;-79
2021/04/20 04:31:44;;;;;;;5.13;1.80;;;11.60;49.00;;;;;;6207466;28;20042;-78
2021/04/20 04:34:48;;;;;;;9.77;2.95;;;11.50;49.10;;;;;;6207082;28;20083;-79
2021/04/20 04:37:49;;;;;;;7.63;2.63;;;11.50;49.30;;;;;;6209246;28;20402;-78
2021/04/20 04:40:50;;;;;;;4.00;2.58;;;11.40;49.50;;;;;;6195339;28;20126;-78
2021/04/20 04:43:51;;;;;;;5.70;2.88;;;11.40;49.70;;;;;;6195184;28;20029;-78
2021/04/20 04:46:53;;;;;;;6.25;3.10;;;11.30;49.80;;;;;;6191481;28;20377;-78
2021/04/20 04:49:59;;;;;;;4.63;2.92;;;11.30;50.10;;;;;;6172169;28;20094;-79
2021/04/20 04:53:01;;;;;;;5.60;3.08;;;11.30;50.20;;;;;;6204942;28;20121;-79
2021/04/20 04:56:04;;;;;;;4.32;2.65;;;11.30;50.20;;;;;;6194744;28;20033;-78
2021/04/20 04:59:06;;;;;;;4.57;2.70;;;11.30;50.30;;;;;;6194882;28;20449;-78
2021/04/20 05:02:12;;;;;;;7.57;3.08;;;11.30;50.40;;;;;;6211304;28;20108;-78
2021/04/20 05:05:15;;;;;;;9.88;3.30;;;11.30;50.70;;;;;;6211413;28;20030;-78
2021/04/20 05:08:16;;;;;;;5.55;2.88;;;11.30;50.80;;;;;;6210919;28;20092;-79
2021/04/20 05:11:17;;;;;;;8.55;3.33;;;11.30;50.70;;;;;;6210834;28;20038;-79
2021/04/20 05:14:20;;;;;;;7.07;3.30;;;11.30;50.70;;;;;;6217509;28;20028;-78
2021/04/20 05:17:22;;;;;;;7.70;3.28;;;11.30;50.70;;;;;;6220307;28;20104;-79
2021/04/20 05:20:27;;;;;;;9.75;4.13;;;11.40;50.70;;;;;;6211840;28;20026;-79
2021/04/20 05:23:28;;;;;;;5.15;2.85;;;11.40;50.50;;;;;;6205497;28;20038;-79
2021/04/20 05:26:30;;;;;;;8.43;3.55;;;11.40;50.30;;;;;;6191617;28;20106;-78
2021/04/20 05:29:31;;;;;;;7.05;2.78;;;11.30;50.00;;;;;;6180461;28;20042;-78
2021/04/20 05:32:33;;;;;;;4.82;2.42;;;11.30;50.00;;;;;;6187195;28;20371;-78
2021/04/20 05:35:34;;;;;;;9.45;3.15;;;11.40;50.00;;;;;;6203725;28;20057;-78
2021/04/20 05:38:36;;;;;;;5.93;3.30;;;11.30;50.00;;;;;;6206290;28;20026;-78
2021/04/20 05:41:39;;;;;;;10.40;3.63;;;11.30;50.10;;;;;;6210737;28;20111;-79
2021/04/20 05:44:39;;;;;;;5.25;2.83;;;11.30;50.20;;;;;;6204027;28;20037;-78
2021/04/20 05:47:43;;;;;;;14.93;3.63;;;11.30;50.40;;;;;;6205867;28;20449;-78
2021/04/20 05:50:50;;;;;;;11.18;3.25;;;11.30;50.50;;;;;;6204177;28;20072;-78
2021/04/20 05:53:53;;;;;;;9.95;3.60;;;11.40;50.40;;;;;;6226594;28;20064;-78
2021/04/20 05:56:54;;;;;;;8.48;3.80;;;11.40;50.30;;;;;;6199573;28;20076;-78
2021/04/20 05:59:57;;;;;;;10.23;3.50;;;11.40;50.20;;;;;;6217798;28;20038;-79
2021/04/20 06:02:58;;;;;;;10.90;3.35;;;11.40;50.20;;;;;;6220472;28;20022;-79
2021/04/20 06:06:02;;;;;;;10.75;3.65;;;11.40;50.10;;;;;;6226819;28;20032;-77
2021/04/20 06:09:04;;;;;;;13.48;3.65;;;11.40;50.10;;;;;;6191515;28;20037;-78
2021/04/20 06:12:06;;;;;;;7.10;3.63;;;11.50;50.00;;;;;;6225281;28;20041;-78
2021/04/20 06:15:09;;;;;;;9.98;3.70;;;11.50;50.00;;;;;;6226858;28;20479;-78
2021/04/20 06:22:33;;;;;;;;;;;11.70;50.00;;;;;;6216482;28;20034;-78
2021/04/20 06:25:34;;;;;;;13.30;4.68;;;11.80;50.00;;;;;;6241766;28;20008;-79
2021/04/20 06:28:39;;;;;;;13.95;4.15;;;11.90;50.00;;;;;;6225046;28;20065;-78
2021/04/20 06:31:40;;;;;;;11.57;4.15;;;11.90;50.10;;;;;;6224807;28;20026;-78
2021/04/20 06:34:41;;;;;;;8.65;4.47;;;12.00;50.30;;;;;;6169201;28;20035;-78
2021/04/20 06:37:44;;;;;;;7.57;4.05;;;12.00;50.30;;;;;;6185532;28;20034;-78
2021/04/20 06:40:52;;;;;;;7.82;4.00;;;11.90;50.00;;;;;;6186074;28;20038;-78
2021/04/20 06:43:59;;;;;;;9.02;4.05;;;11.90;50.00;;;;;;6194543;28;20042;-78
2021/04/20 06:47:11;;;;;;;8.80;4.45;;;11.90;50.10;;;;;;6181257;28;20035;-78
2021/04/20 06:50:16;;;;;;;7.78;3.95;;;12.00;50.10;;;;;;6208664;28;20445;-78
2021/04/20 06:53:25;;;;;;;9.82;4.25;;;12.10;50.00;;;;;;6192207;28;20026;-79
2021/04/20 06:56:33;;;;;;;9.63;4.15;;;12.20;49.80;;;;;;6208188;28;20413;-78
2021/04/20 06:59:54;;;;;;;12.60;4.10;;;12.30;49.60;;;;;;6191691;28;20044;-79
2021/04/20 07:03:13;;;;;;;9.38;3.80;;;12.50;49.40;;;;;;6191672;28;20058;-80
2021/04/20 07:06:31;;;;;;;12.80;3.40;;;12.60;49.10;;;;;;6186456;28;20362;-79
2021/04/20 07:09:38;;;;;;;9.13;4.15;;;12.80;48.90;;;;;;6171113;28;20031;-77
2021/04/20 07:12:43;;;;;;;7.75;4.18;;;12.90;48.50;;;;;;6207399;28;20037;-79
2021/04/20 07:15:50;;;;;;;10.60;3.97;;;13.00;48.20;;;;;;6225347;28;20499;-78
2021/04/20 07:19:10;;;;;;;10.77;4.35;;;13.10;47.90;;;;;;6208116;28;20030;-78
2021/04/20 07:22:38;;;;;;;7.28;3.88;;;13.20;47.60;;;;;;6207434;28;20041;-79
2021/04/20 07:26:17;;;;;;;7.22;4.20;;;13.40;47.50;;;;;;6191349;28;20365;-79
2021/04/20 07:29:26;;;;;;;9.37;3.93;;;13.60;47.20;;;;;;6149413;28;20045;-79
2021/04/20 07:32:50;;;;;;;7.10;3.97;;;13.90;46.80;;;;;;6198773;28;20085;-78
2021/04/20 07:36:27;;;;;;;7.95;3.78;;;14.00;46.20;;;;;;6167860;28;20112;-78
2021/04/20 07:39:44;;;;;;;8.25;3.85;;;14.00;45.70;;;;;;6162687;28;20074;-78
2021/04/20 07:43:13;;;;;;;9.57;4.30;;;14.10;45.70;;;;;;6169480;28;20058;-78
2021/04/20 07:46:34;;;;;;;6.35;3.28;;;14.30;45.50;;;;;;6176403;28;20038;-79
2021/04/20 07:50:15;;;;;;;22.40;4.47;;;14.40;45.00;;;;;;6163335;28;20026;-79
2021/04/20 07:53:15;;;;;;;;;;;14.60;44.80;;;;;;6196891;28;20034;-79
2021/04/20 07:56:31;;;;;;;16.70;4.32;;;14.80;44.50;;;;;;6179009;28;19928;-79
2021/04/20 08:00:06;;;;;;;17.05;3.97;;;14.90;44.10;;;;;;6166879;28;20034;-79
2021/04/20 08:03:37;;;;;;;7.18;3.40;;;15.00;43.70;;;;;;6193576;28;20045;-79
2021/04/20 08:06:39;;;;;;;13.38;5.25;;;15.00;43.00;;;;;;6219652;28;20109;-78
2021/04/20 08:09:45;;;;;;;14.93;5.80;;;15.10;43.00;;;;;;6212855;28;20404;-78
2021/04/20 08:13:04;;;;;;;10.07;4.15;;;15.20;42.90;;;;;;6202495;28;20041;-80
2021/04/20 08:16:18;;;;;;;16.48;4.32;;;15.40;42.70;;;;;;6213050;28;20042;-79
2021/04/20 08:19:25;;;;;;;8.50;3.80;;;15.60;42.30;;;;;;6204926;28;20027;-78
2021/04/20 08:22:26;;;;;;;13.35;3.78;;;15.90;41.90;;;;;;6204799;28;20150;-79
2021/04/20 08:26:07;;;;;;;10.75;3.33;;;16.00;41.50;;;;;;6204981;28;20416;-78
2021/04/20 08:29:20;;;;;;;11.18;4.03;;;16.10;41.10;;;;;;6223315;28;20376;-79
2021/04/20 08:32:25;;;;;;;5.60;3.80;;;16.30;40.80;;;;;;6211372;28;20037;-78
2021/04/20 08:35:29;;;;;;;6.60;3.33;;;16.40;40.20;;;;;;6211535;28;20046;-78
2021/04/20 08:38:51;;;;;;;6.78;3.40;;;16.50;40.10;;;;;;6195272;28;20341;-79
2021/04/20 08:42:05;;;;;;;6.28;3.20;;;16.70;39.90;;;;;;6194751;28;20364;-79
2021/04/20 08:45:29;;;;;;;8.20;4.00;;;16.80;39.10;;;;;;6191390;28;20494;-79
2021/04/20 08:48:58;;;;;;;5.97;3.20;;;16.90;39.10;;;;;;6188445;28;20085;-79
2021/04/20 08:52:11;;;;;;;6.07;3.03;;;17.00;38.70;;;;;;6189161;28;20113;-79
2021/04/20 08:55:46;;;;;;;14.10;3.40;;;17.10;38.00;;;;;;6203218;28;20090;-78
2021/04/20 08:59:18;;;;;;;5.97;3.05;;;17.10;37.80;;;;;;6224159;28;20030;-79
2021/04/20 09:02:31;;;;;;;9.70;4.63;;;17.20;37.50;;;;;;6195090;28;20045;-79
2021/04/20 09:05:53;;;;;;;11.23;3.85;;;17.30;37.50;;;;;;6191951;28;20030;-78
2021/04/20 09:09:04;;;;;;;8.02;3.50;;;17.50;37.20;;;;;;6206852;28;20065;-77
2021/04/20 09:12:37;;;;;;;9.13;3.58;;;17.60;37.10;;;;;;6207754;28;20045;-79
2021/04/20 09:15:44;;;;;;;6.82;3.88;;;17.60;36.20;;;;;;6212289;28;20033;-80
2021/04/20 09:18:47;;;;;;;5.57;3.30;;;17.60;35.80;;;;;;6184143;28;20050;-79
2021/04/20 09:22:07;;;;;;;7.97;3.70;;;17.60;36.20;;;;;;6195609;28;20041;-79
2021/04/20 09:25:32;;;;;;;5.40;3.60;;;17.70;36.40;;;;;;6201444;28;20045;-79
2021/04/20 09:28:46;;;;;;;8.05;3.35;;;17.80;36.30;;;;;;6209822;28;20046;-78
2021/04/20 09:31:55;;;;;;;11.55;3.63;;;18.00;36.40;;;;;;6189888;28;20034;-79
2021/04/20 09:34:58;;;;;;;14.95;3.35;;;18.10;36.20;;;;;;6188457;28;20045;-78
2021/04/20 09:38:01;;;;;;;6.18;3.28;;;18.20;35.80;;;;;;6187113;28;20041;-79
2021/04/20 09:41:02;;;;;;;6.68;3.15;;;18.40;35.40;;;;;;6197749;28;20092;-80
2021/04/20 09:44:13;;;;;;;8.85;2.97;;;18.40;35.20;;;;;;6209955;28;20120;-79
2021/04/20 09:47:14;;;;;;;11.20;3.60;;;18.50;34.80;;;;;;6210020;28;20406;-78
2021/04/20 09:50:54;;;;;;;32.75;12.63;;;18.60;34.60;;;;;;6203750;28;20448;-79
2021/04/20 09:53:57;;;;;;;8.15;3.72;;;18.60;34.50;;;;;;6193692;28;20033;-79
2021/04/20 09:57:05;;;;;;;8.23;4.03;;;18.70;34.30;;;;;;6226555;28;20374;-79
2021/04/20 10:00:08;;;;;;;;;;;18.70;33.80;;;;;;6210268;28;20026;-78
2021/04/20 10:03:42;;;;;;;11.07;3.83;;;18.70;34.00;;;;;;6194827;28;19964;-79
2021/04/20 10:07:05;;;;;;;6.97;3.30;;;18.70;33.60;;;;;;6193402;28;20028;-79
2021/04/20 10:10:28;;;;;;;5.65;2.95;;;18.80;33.60;;;;;;6190997;28;20026;-78
2021/04/20 10:13:58;;;;;;;8.18;3.50;;;18.90;33.40;;;;;;6187851;28;20118;-79
2021/04/20 10:17:17;;;;;;;4.57;2.75;;;19.00;33.10;;;;;;6186724;28;20437;-79
2021/04/20 10:20:22;;;;;;;6.53;3.00;;;19.00;32.40;;;;;;6221878;28;20109;-79
2021/04/20 10:23:40;;;;;;;4.93;3.20;;;19.10;32.10;;;;;;6227785;28;20026;-80
2021/04/20 10:26:58;;;;;;;6.10;3.30;;;19.20;32.30;;;;;;6209527;28;20092;-78
2021/04/20 10:30:11;;;;;;;4.75;3.17;;;19.30;32.30;;;;;;6209604;28;20057;-79
2021/04/20 10:37:39;;;;;;;10.93;3.33;;;19.50;32.00;;;;;;6215732;28;20536;-78
2021/04/20 10:40:44;;;;;;;14.07;2.85;;;19.60;31.60;;;;;;6202871;28;20180;-79
2021/04/20 10:48:16;;;;;;;4.38;2.75;;;19.80;31.30;;;;;;6215375;28;20029;-78
2021/04/20 10:51:38;;;;;;;5.13;2.72;;;20.50;30.40;;;;;;6208585;28;20171;-79
2021/04/20 10:54:41;;;;;;;4.20;2.55;;;21.20;29.50;;;;;;6221136;28;20534;-79
2021/04/20 10:57:47;;;;;;;5.55;2.50;;;21.90;28.60;;;;;;6204793;28;20022;-79
2021/04/20 11:00:51;;;;;;;3.38;2.40;;;22.50;28.00;;;;;;6201709;28;20449;-79
2021/04/20 11:03:54;;;;;;;10.50;3.50;;;23.10;27.10;;;;;;6203083;28;20033;-78
2021/04/20 11:07:19;;;;;;;3.35;2.40;;;23.60;26.60;;;;;;6185232;28;20368;-78
2021/04/20 11:10:26;;;;;;;4.88;2.42;;;24.10;26.00;;;;;;6203507;28;20034;-79
2021/04/20 11:13:38;;;;;;;5.47;2.78;;;24.40;25.90;;;;;;6202779;28;20034;-79
2021/04/20 11:16:45;;;;;;;4.50;2.80;;;24.80;25.10;;;;;;6208179;28;20041;-79
2021/04/20 11:19:51;;;;;;;4.25;2.22;;;24.90;25.00;;;;;;6224268;28;20026;-79
2021/04/20 11:23:12;;;;;;;6.38;2.15;;;25.10;24.40;;;;;;6224451;28;20030;-79
2021/04/20 11:26:15;;;;;;;3.42;2.25;;;25.20;24.50;;;;;;6217914;28;20053;-79
2021/04/20 11:29:26;;;;;;;2.50;1.90;;;25.30;24.00;;;;;;6224941;28;20460;-78
2021/04/20 11:32:29;;;;;;;3.65;2.15;;;25.30;23.60;;;;;;6207659;28;20048;-80
2021/04/20 11:35:31;;;;;;;3.05;1.90;;;25.30;23.80;;;;;;6196696;28;20050;-79
2021/04/20 11:38:46;;;;;;;6.50;2.67;;;25.50;23.70;;;;;;6184781;28;20030;-79
2021/04/20 11:41:58;;;;;;;2.83;2.08;;;25.70;23.70;;;;;;6200161;28;20030;-78
2021/04/20 11:45:05;;;;;;;3.67;2.20;;;25.90;23.50;;;;;;6207800;28;20041;-79
2021/04/20 11:48:14;;;;;;;5.50;2.70;;;26.00;23.50;;;;;;6190645;28;20041;-79
2021/04/20 11:51:16;;;;;;;6.00;2.42;;;26.20;23.90;;;;;;6169072;28;20032;-79
2021/04/20 11:54:25;;;;;;;5.13;2.10;;;26.40;23.20;;;;;;6208871;28;20030;-79
2021/04/20 11:57:27;;;;;;;3.40;2.38;;;26.60;23.00;;;;;;6201907;28;20034;-79
2021/04/20 12:00:30;;;;;;;2.80;2.33;;;26.80;22.60;;;;;;6202238;28;20026;-79
2021/04/20 12:03:34;;;;;;;4.38;2.35;;;26.90;22.30;;;;;;6191356;28;20034;-78
2021/04/20 12:06:42;;;;;;;4.03;2.22;;;26.90;22.10;;;;;;6201227;28;20045;-78
2021/04/20 12:09:44;;;;;;;;;;;27.10;22.20;;;;;;6201663;28;20046;-79
2021/04/20 12:12:51;;;;;;;6.72;2.70;;;27.40;22.10;;;;;;6223615;28;20256;-79
2021/04/20 12:16:13;;;;;;;5.43;2.28;;;27.80;21.80;;;;;;6191507;28;20121;-80
2021/04/20 12:19:17;;;;;;;14.75;2.72;;;28.20;21.60;;;;;;6202193;28;20361;-79
2021/04/20 12:22:24;;;;;;;3.45;2.40;;;28.60;21.20;;;;;;6180686;28;20053;-80
2021/04/20 12:25:27;;;;;;;3.67;2.55;;;29.10;21.40;;;;;;6205464;28;20037;-78
2021/04/20 12:28:29;;;;;;;4.05;3.00;;;29.60;20.50;;;;;;6191780;28;20085;-78
2021/04/20 12:31:35;;;;;;;2.85;2.10;;;30.00;20.00;;;;;;6225372;28;20392;-78
2021/04/20 12:34:36;;;;;;;13.48;3.22;;;30.40;19.60;;;;;;6199206;28;20077;-79
2021/04/20 12:37:38;;;;;;;3.47;1.95;;;30.90;19.20;;;;;;6186179;28;20420;-78
2021/04/20 12:40:42;;;;;;;2.63;2.00;;;31.40;18.40;;;;;;6192267;28;20338;-80
2021/04/20 12:43:49;;;;;;;29.23;3.30;;;31.70;17.80;;;;;;6191056;28;20113;-79
2021/04/20 12:46:53;;;;;;;3.22;2.10;;;31.80;17.50;;;;;;6207495;28;20040;-79
2021/04/20 12:49:56;;;;;;;6.82;2.08;;;32.30;17.20;;;;;;6187670;28;20033;-79
2021/04/20 12:53:01;;;;;;;5.45;2.35;;;32.50;17.10;;;;;;6219967;28;20131;-79
2021/04/20 12:56:36;;;;;;;5.75;2.15;;;33.10;17.10;;;;;;6205912;28;20042;-79
2021/04/20 12:59:37;;;;;;;2.83;1.70;;;33.80;16.30;;;;;;6164119;28;20042;-81
2021/04/20 13:02:44;;;;;;;2.10;1.58;;;34.00;15.70;;;;;;6195956;28;20033;-80
2021/04/20 13:05:45;;;;;;;2.92;2.03;;;34.00;15.30;;;;;;6213220;28;20117;-79
2021/04/20 13:08:50;;;;;;;5.30;1.83;;;34.00;15.30;;;;;;6188943;28;20026;-80
2021/04/20 13:11:54;;;;;;;4.55;1.80;;;34.20;15.20;;;;;;6192573;28;20369;-80
2021/04/20 13:15:05;;;;;;;2.58;1.95;;;34.70;15.00;;;;;;6172311;28;20114;-78
2021/04/20 13:18:34;;;;;;;6.05;2.58;;;34.90;15.00;;;;;;6172334;28;20062;-79
2021/04/20 13:21:40;;;;;;;5.32;2.08;;;35.00;14.50;;;;;;6171191;28;20047;-79
2021/04/20 13:24:42;;;;;;;2.35;1.88;;;35.20;14.40;;;;;;6190641;28;20038;-79
2021/04/20 13:27:47;;;;;;;3.95;1.80;;;35.70;14.40;;;;;;6192073;28;20026;-80
2021/04/20 13:30:50;;;;;;;5.30;1.85;;;36.10;13.70;;;;;;6206218;28;20038;-79
2021/04/20 13:33:58;;;;;;;3.28;1.90;;;36.20;13.30;;;;;;6187872;28;20454;-80
2021/04/20 13:37:04;;;;;;;5.03;2.10;;;36.00;13.00;;;;;;6221539;28;20049;-79
2021/04/20 13:40:11;;;;;;;8.07;1.98;;;35.70;13.10;;;;;;6211662;28;20030;-80
2021/04/20 13:43:13;;;;;;;2.35;1.65;;;35.90;13.40;;;;;;6219779;28;20362;-79
2021/04/20 13:46:18;;;;;;;4.03;1.63;;;36.30;12.90;;;;;;6198466;28;20094;-79
2021/04/20 13:49:19;;;;;;;1.23;1.13;;;36.50;12.80;;;;;;6214772;28;20025;-79
2021/04/20 13:52:24;;;;;;;3.22;1.55;;;36.90;12.60;;;;;;6226988;28;20124;-79
2021/04/20 13:55:31;;;;;;;4.95;2.08;;;36.90;12.30;;;;;;6227079;28;20068;-81
2021/04/20 13:58:41;;;;;;;2.40;1.60;;;36.80;12.00;;;;;;6226825;28;20306;-80
2021/04/20 14:01:46;;;;;;;1.95;1.20;;;36.70;12.20;;;;;;6210598;28;20033;-80
2021/04/20 14:04:55;;;;;;;6.63;2.00;;;36.80;12.00;;;;;;6206329;28;20192;-79
2021/04/20 14:07:56;;;;;;;3.67;1.80;;;36.70;12.00;;;;;;6219488;28;20117;-80
2021/04/20 14:10:59;;;;;;;4.85;1.80;;;36.70;11.90;;;;;;6209131;28;20026;-80
2021/04/20 14:14:02;;;;;;;5.45;1.80;;;36.60;12.10;;;;;;6226036;28;20358;-80
2021/04/20 14:17:06;;;;;;;5.88;1.95;;;36.70;12.20;;;;;;6206372;28;20117;-80
2021/04/20 14:20:20;;;;;;;4.43;1.60;;;36.30;12.40;;;;;;6204929;28;20049;-79
2021/04/20 14:23:21;;;;;;;4.13;1.60;;;35.20;12.70;;;;;;6186869;28;20065;-79
2021/04/20 14:26:26;;;;;;;7.43;1.40;;;33.60;13.40;;;;;;6210250;28;20041;-80
2021/04/20 14:29:28;;;;;;;3.28;1.52;;;32.20;14.30;;;;;;6226339;28;20213;-80
2021/04/20 14:32:33;;;;;;;2.83;1.52;;;31.20;14.90;;;;;;6191392;28;20471;-80
2021/04/20 14:35:36;;;;;;;3.00;1.65;;;30.30;15.40;;;;;;6193573;28;20022;-78
2021/04/20 14:38:41;;;;;;;3.38;1.50;;;29.50;15.90;;;;;;6209988;28;20038;-79
2021/04/20 14:41:45;;;;;;;2.67;1.50;;;28.60;16.20;;;;;;6206139;28;20179;-79
2021/04/20 14:44:47;;;;;;;1.88;1.38;;;27.90;16.90;;;;;;6192798;28;20062;-79
2021/04/20 14:47:55;;;;;;;5.00;1.40;;;27.30;17.50;;;;;;6208545;28;20038;-79
2021/04/20 14:51:20;;;;;;;2.00;1.30;;;26.70;18.10;;;;;;6226131;28;20408;-79
2021/04/20 14:54:27;;;;;;;4.38;2.10;;;26.20;18.40;;;;;;6208802;28;20123;-78
2021/04/20 14:57:35;;;;;;;3.67;1.50;;;25.80;18.70;;;;;;6186563;28;20035;-78
2021/04/20 15:00:37;;;;;;;3.47;2.00;;;25.40;19.00;;;;;;6202770;28;20064;-79
2021/04/20 15:03:46;;;;;;;1.88;1.50;;;25.10;19.20;;;;;;6208365;28;20034;-79
2021/04/20 15:07:21;;;;;;;1.98;1.40;;;24.90;19.80;;;;;;6191730;28;20037;-78
2021/04/20 15:10:47;;;;;;;2.63;1.52;;;24.70;19.50;;;;;;6225848;28;20029;-79
2021/04/20 15:14:11;;;;;;;4.18;1.40;;;24.50;19.60;;;;;;6225522;28;20045;-78
2021/04/20 15:17:19;;;;;;;3.38;1.65;;;24.30;19.70;;;;;;6192033;28;20037;-78
2021/04/20 15:20:21;;;;;;;1.63;1.23;;;24.10;19.80;;;;;;6179456;28;20033;-79
2021/04/20 15:23:41;;;;;;;2.58;1.27;;;24.00;20.00;;;;;;6207547;28;20125;-78
2021/04/20 15:26:47;;;;;;;9.02;1.50;;;24.00;20.30;;;;;;6207404;28;20287;-78
2021/04/20 15:30:10;;;;;;;1.88;1.20;;;24.00;20.40;;;;;;6197494;28;20473;-78
2021/04/20 15:33:27;;;;;;;2.85;1.73;;;24.00;20.50;;;;;;6222153;28;20030;-77
2021/04/20 15:36:29;;;;;;;2.08;1.38;;;24.00;20.50;;;;;;6202001;28;20068;-78
2021/04/20 15:39:36;;;;;;;2.92;1.77;;;24.00;20.70;;;;;;6209764;28;20361;-79
2021/04/20 15:42:38;;;;;;;2.20;1.60;;;24.00;20.80;;;;;;6193871;28;20074;-78
2021/04/20 15:45:44;;;;;;;2.67;1.80;;;24.00;20.90;;;;;;6184527;28;20039;-78
2021/04/20 15:48:50;;;;;;;7.38;2.05;;;24.20;20.90;;;;;;6184886;28;20302;-79
2021/04/20 15:52:00;;;;;;;7.85;1.75;;;24.70;21.00;;;;;;6184811;28;20362;-79
2021/04/20 15:55:04;;;;;;;3.03;1.75;;;26.20;19.30;;;;;;6201038;28;20026;-79
2021/04/20 15:58:08;;;;;;;2.28;1.40;;;27.70;18.00;;;;;;6200805;28;20034;-79
2021/04/20 16:01:10;;;;;;;2.10;1.58;;;29.10;17.20;;;;;;6213577;28;20109;-79
2021/04/20 16:04:14;;;;;;;4.07;1.83;;;30.20;16.60;;;;;;6201176;28;20034;-78
2021/04/20 16:07:22;;;;;;;18.48;1.77;;;31.20;15.90;;;;;;6216232;28;20471;-80
2021/04/20 16:10:25;;;;;;;2.95;1.83;;;30.90;15.70;;;;;;6225825;28;20030;-80
2021/04/20 16:13:27;;;;;;;3.47;2.10;;;30.40;16.10;;;;;;6208817;28;20065;-80
2021/04/20 16:16:32;;;;;;;5.07;1.63;;;30.10;16.10;;;;;;6209166;28;20042;-79
2021/04/20 16:19:34;;;;;;;3.70;1.70;;;29.50;16.60;;;;;;6208460;28;20082;-78
2021/04/20 16:22:44;;;;;;;7.40;3.55;;;29.00;17.00;;;;;;6224805;28;20348;-79
2021/04/20 16:25:47;;;;;;;3.35;1.80;;;28.70;16.90;;;;;;6213187;28;20089;-78
2021/04/20 16:28:53;;;;;;;2.38;1.52;;;28.30;17.10;;;;;;6216392;28;20054;-81